createdAt,value
2022-12-13T05:11:36.278Z,16.08
2022-12-13T05:14:13.570Z,16.02
2022-12-13T05:16:41.447Z,16.13
2022-12-13T05:19:09.095Z,15.82
2022-12-13T05:21:36.730Z,16.10
2022-12-13T05:24:04.670Z,15.13
2022-12-13T05:26:32.374Z,15.70
2022-12-13T05:29:00.098Z,15.05
2022-12-13T05:31:27.847Z,15.80
2022-12-13T05:33:55.533Z,16.33
2022-12-13T05:36:30.692Z,15.70
2022-12-13T05:38:58.366Z,16.20
2022-12-13T05:41:29.410Z,16.40
2022-12-13T05:43:58.034Z,15.68
2022-12-13T05:46:25.758Z,15.48
2022-12-13T05:48:53.412Z,15.82
2022-12-13T05:51:21.073Z,15.20
2022-12-13T05:53:53.297Z,16.52
2022-12-13T05:56:22.878Z,16.42
2022-12-13T05:58:53.359Z,15.60
2022-12-13T06:01:22.779Z,15.45
2022-12-13T06:03:50.481Z,15.85
2022-12-13T06:06:18.426Z,15.63
2022-12-13T06:08:46.215Z,14.90
2022-12-13T06:11:31.201Z,15.75
2022-12-13T06:14:01.080Z,14.82
2022-12-13T06:16:29.096Z,15.40
2022-12-13T06:19:03.736Z,14.27
2022-12-13T06:21:41.844Z,14.60
2022-12-13T06:24:18.633Z,14.68
2022-12-13T06:26:46.548Z,14.60
2022-12-13T06:29:23.496Z,15.15
2022-12-13T06:32:02.245Z,14.40
2022-12-13T06:34:35.777Z,14.15
2022-12-13T06:37:07.238Z,14.65
2022-12-13T06:39:35.462Z,14.07
2022-12-13T06:42:06.644Z,13.48
2022-12-13T06:44:35.557Z,13.73
2022-12-13T06:47:11.240Z,13.50
2022-12-13T06:49:43.385Z,13.88
2022-12-13T06:52:12.970Z,13.00
2022-12-13T06:54:42.558Z,14.43
2022-12-13T06:57:14.149Z,14.20
2022-12-13T06:59:42.308Z,14.15
2022-12-13T07:02:10.270Z,14.70
2022-12-13T07:04:54.284Z,14.35
2022-12-13T07:07:22.493Z,14.60
2022-12-13T07:09:50.152Z,13.98
2022-12-13T07:12:19.464Z,13.88
2022-12-13T07:14:47.268Z,15.05
2022-12-13T15:58:37.331Z,17.80
2022-12-13T16:01:08.251Z,18.42
2022-12-13T16:03:44.812Z,19.58
2022-12-13T16:06:18.750Z,18.95
2022-12-13T16:08:54.481Z,19.13
2022-12-13T16:11:50.362Z,18.73
2022-12-13T16:14:35.575Z,18.30
2022-12-13T16:17:14.677Z,18.10
2022-12-13T16:19:42.508Z,19.00
2022-12-13T16:22:10.124Z,18.50
2022-12-13T16:24:40.031Z,18.33
2022-12-13T16:27:09.908Z,18.40
2022-12-13T16:29:37.553Z,16.95
2022-12-13T16:32:07.924Z,17.70
2022-12-13T16:34:39.238Z,17.85
2022-12-13T16:37:26.772Z,17.90
2022-12-13T16:39:56.037Z,17.83
2022-12-13T16:42:26.983Z,16.63
2022-12-13T16:45:40.436Z,16.83
2022-12-13T16:47:49.621Z,17.42
2022-12-13T16:50:20.080Z,16.15
2022-12-13T16:52:49.111Z,14.18
2022-12-13T16:55:16.913Z,16.45
2022-12-13T16:57:55.682Z,15.65
2022-12-13T17:00:23.803Z,16.10
2022-12-13T17:02:51.537Z,15.50
2022-12-13T17:05:19.617Z,15.65
2022-12-13T17:07:47.291Z,16.23
2022-12-13T17:10:16.791Z,15.63
2022-12-13T17:12:45.106Z,15.50
2022-12-13T17:15:13.837Z,16.15
2022-12-13T17:17:44.069Z,15.80
2022-12-13T17:20:17.936Z,15.75
2022-12-13T17:22:46.784Z,15.77
2022-12-13T17:25:15.004Z,15.45
2022-12-13T17:27:43.120Z,16.75
2022-12-13T17:30:15.363Z,15.75
2022-12-13T17:32:45.901Z,15.55
2022-12-13T17:35:18.146Z,15.82
2022-12-13T17:37:46.476Z,15.80
2022-12-13T17:40:14.194Z,15.63
2022-12-13T17:42:41.868Z,15.82
2022-12-13T17:45:09.901Z,15.48
2022-12-13T17:47:39.468Z,16.27
2022-12-13T17:50:09.154Z,18.25
2022-12-13T17:52:38.810Z,30.17
2022-12-13T17:55:07.400Z,62.28
2022-12-13T17:57:35.634Z,61.28
2022-12-13T18:00:04.235Z,59.42
2022-12-13T18:02:40.462Z,39.05
2022-12-13T18:05:10.982Z,32.38
2022-12-13T18:07:42.296Z,21.60
2022-12-13T18:10:18.971Z,16.92
2022-12-13T18:12:46.606Z,16.00
2022-12-13T18:15:14.370Z,16.05
2022-12-13T18:18:10.100Z,16.85
2022-12-13T18:20:30.273Z,16.42
2022-12-13T18:22:58.658Z,15.65
2022-12-13T18:25:26.291Z,15.63
2022-12-13T18:28:00.629Z,15.55
2022-12-13T18:30:31.274Z,15.63
2022-12-13T18:32:59.341Z,16.92
2022-12-13T18:35:27.678Z,17.13
2022-12-13T18:37:55.341Z,15.50
2022-12-13T18:40:22.969Z,15.77
2022-12-13T18:42:51.039Z,16.13
2022-12-13T18:45:19.962Z,16.08
2022-12-13T18:47:47.636Z,20.10
2022-12-13T18:50:15.628Z,24.30
2022-12-13T18:52:43.991Z,23.98
2022-12-13T18:55:11.623Z,23.50
2022-12-13T18:57:39.357Z,20.15
2022-12-13T19:00:08.461Z,15.73
2022-12-13T19:02:36.337Z,15.50
2022-12-13T19:05:05.027Z,17.52
2022-12-13T19:07:32.708Z,16.83
2022-12-13T19:10:00.559Z,16.95
2022-12-13T19:12:28.443Z,15.63
2022-12-13T19:14:56.889Z,15.23
2022-12-13T19:17:25.114Z,14.77
2022-12-13T19:19:54.582Z,14.90
2022-12-13T19:22:23.521Z,15.55
2022-12-13T19:24:51.432Z,15.80
2022-12-13T19:27:19.964Z,15.20
2022-12-13T19:29:48.272Z,15.00
2022-12-13T19:32:16.102Z,15.38
2022-12-13T19:34:43.886Z,15.50
2022-12-13T19:37:11.769Z,14.65
2022-12-13T19:39:39.521Z,15.15
2022-12-13T19:42:07.277Z,15.80
2022-12-13T19:44:35.451Z,14.77
2022-12-13T19:47:03.518Z,15.80
2022-12-13T19:49:31.717Z,15.50
2022-12-13T19:52:00.450Z,15.25
2022-12-13T19:54:28.415Z,15.18
2022-12-13T19:56:56.168Z,14.60
2022-12-13T19:59:23.905Z,14.90
2022-12-13T20:01:51.656Z,14.13
2022-12-13T20:04:19.419Z,15.13
2022-12-13T20:06:47.087Z,15.18
2022-12-13T20:09:14.847Z,16.05
2022-12-13T20:11:42.576Z,17.60
2022-12-13T20:14:10.275Z,15.98
2022-12-13T20:16:37.993Z,15.43
2022-12-13T20:19:05.709Z,15.77
2022-12-13T20:21:33.540Z,15.05
2022-12-13T20:24:01.447Z,15.60
2022-12-13T20:26:30.469Z,15.00
2022-12-13T20:28:58.121Z,14.68
2022-12-13T20:31:28.984Z,14.25
2022-12-13T20:33:58.144Z,15.13
2022-12-13T20:36:28.011Z,14.60
2022-12-13T20:38:57.464Z,14.00
2022-12-13T20:41:27.502Z,15.38
2022-12-13T20:43:57.393Z,15.07
2022-12-13T20:46:26.735Z,15.57
2022-12-13T20:48:55.499Z,15.68
2022-12-13T20:51:25.575Z,16.50
2022-12-13T20:53:54.516Z,14.75
2022-12-13T20:56:25.317Z,15.57
2022-12-13T21:01:22.957Z,21.00
2022-12-13T21:03:56.540Z,14.82
2022-12-13T21:06:24.430Z,14.60
2022-12-13T21:08:52.394Z,13.52
2022-12-13T21:11:27.287Z,13.88
2022-12-13T21:14:06.875Z,13.52
2022-12-13T21:19:10.025Z,13.38
2022-12-13T21:21:38.029Z,13.70
2022-12-13T21:24:06.068Z,13.45
2022-12-13T21:26:35.970Z,13.77
2022-12-13T21:29:06.981Z,13.07
2022-12-13T21:31:36.199Z,13.40
2022-12-13T21:34:05.398Z,13.48
2022-12-13T21:36:38.297Z,13.40
2022-12-13T21:39:08.653Z,13.70
2022-12-13T21:41:36.373Z,13.52
2022-12-13T21:44:04.891Z,13.57
2022-12-13T21:47:11.966Z,13.15
